| time (UTC) | temp C | wind direction | speed KPH | gust KPH | rain 1hr cm | rain 24hr cm | rain mn cm | humidity % | barometer mb |
| 20260507075414 | 12 | 180 | 0.0 | 0.0 | 0.03 | 0.15 | 0.03 | 85 | 1009.7 |
| 20260507074414 | 12 | 180 | 0.0 | 0.0 | 0.00 | 0.13 | 0.00 | 84 | 1009.8 |
| 20260507073414 | 12 | 147 | 0.0 | 0.0 | 0.00 | 0.13 | 0.00 | 84 | 1009.6 |
| 20260507071514 | 12 | 180 | 0.0 | 0.0 | 0.00 | 0.13 | 0.00 | 85 | 1009.2 |
| 20260507070613 | 12 | 180 | 0.0 | 0.0 | 0.00 | 0.13 | 0.00 | 87 | 1009.2 |
| 20260507064713 | 13 | 180 | 0.0 | 0.0 | 0.00 | 0.13 | 0.00 | 88 | 1009.2 |
| 20260507063812 | 13 | 180 | 0.0 | 0.0 | 0.00 | 0.13 | 0.00 | 88 | 1009.3 |
| 20260507062816 | 13 | 180 | 0.0 | 0.0 | 0.00 | 0.13 | 0.00 | 88 | 1009.0 |
| 20260507061914 | 13 | 180 | 0.0 | 0.0 | 0.00 | 0.13 | 0.00 | 90 | 1008.9 |
| 20260507061012 | 13 | 180 | 0.0 | 0.0 | 0.00 | 0.13 | 0.00 | 90 | 1008.9 |
| 20260507055014 | 13 | 180 | 0.0 | 3.2 | 0.00 | 0.13 | 0.00 | 91 | 1009.3 |
| 20260507054015 | 14 | 180 | 0.0 | 0.0 | 0.00 | 0.13 | 0.00 | 92 | 1009.5 |
| 20260507053112 | 14 | 92 | 0.0 | 0.0 | 0.00 | 0.13 | 0.00 | 92 | 1009.4 |
| 20260507051116 | 15 | 180 | 0.0 | 1.6 | 0.00 | 0.13 | 0.00 | 94 | 1009.1 |
| 20260507050113 | 15 | 180 | 0.0 | 0.0 | 0.00 | 0.13 | 0.00 | 94 | 1009.2 |
| 20260507044213 | 15 | 180 | 4.8 | 11.3 | 0.00 | 0.13 | 0.00 | 95 | 1009.1 |
| 20260507043214 | 15 | 180 | 0.0 | 1.6 | 0.00 | 0.13 | 0.00 | 95 | 1009.0 |
| 20260507042312 | 15 | 180 | 0.0 | 0.0 | 0.00 | 0.13 | 0.00 | 95 | 1008.9 |
| 20260507042213 | 15 | 180 | 0.0 | 1.6 | 0.00 | 0.13 | 0.00 | 95 | 1008.9 |
| 20260507042112 | 15 | 180 | 0.0 | 6.4 | 0.00 | 0.13 | 0.00 | 95 | 1009.1 |
| 20260507041211 | 15 | 180 | 0.0 | 4.8 | 0.00 | 0.13 | 0.00 | 93 | 1009.2 |
| 20260507040216 | 15 | 180 | 1.6 | 6.4 | 0.00 | 0.13 | 0.00 | 94 | 1009.4 |
| 20260507035219 | 15 | 180 | 0.0 | 1.6 | 0.00 | 0.13 | 0.13 | 94 | 1009.3 |
| 20260507033219 | 15 | 180 | 3.2 | 11.3 | 0.00 | 0.13 | 0.13 | 93 | 1009.0 |
| 20260507032222 | 15 | 180 | 3.2 | 11.3 | 0.00 | 0.13 | 0.13 | 93 | 1008.9 |
| 20260507031220 | 15 | 180 | 4.8 | 14.5 | 0.00 | 0.13 | 0.13 | 93 | 1008.7 |
| 20260507030222 | 15 | 180 | 6.4 | 17.7 | 0.00 | 0.13 | 0.13 | 92 | 1008.7 |
| 20260507025220 | 15 | 180 | 4.8 | 9.7 | 0.00 | 0.13 | 0.13 | 92 | 1008.7 |
| 20260507024221 | 15 | 180 | 6.4 | 20.9 | 0.00 | 0.13 | 0.13 | 93 | 1008.9 |
| 20260507022320 | 15 | 180 | 4.8 | 17.7 | 0.00 | 0.13 | 0.13 | 93 | 1008.8 |
| 20260507021419 | 15 | 180 | 0.0 | 6.4 | 0.00 | 0.13 | 0.13 | 94 | 1008.7 |
| 20260507015519 | 15 | 180 | 1.6 | 11.3 | 0.00 | 0.13 | 0.13 | 94 | 1008.8 |
| 20260507014518 | 15 | 180 | 4.8 | 17.7 | 0.00 | 0.13 | 0.13 | 94 | 1008.9 |
| 20260507013522 | 15 | 172 | 0.0 | 6.4 | 0.00 | 0.13 | 0.13 | 94 | 1009.0 |
| 20260507012522 | 14 | 180 | 4.8 | 12.9 | 0.00 | 0.13 | 0.13 | 94 | 1009.1 |
| 20260507011520 | 14 | 180 | 0.0 | 4.8 | 0.00 | 0.13 | 0.13 | 93 | 1009.3 |
| 20260507010521 | 14 | 180 | 6.4 | 16.1 | 0.00 | 0.13 | 0.13 | 93 | 1009.3 |
| 20260507005619 | 14 | 180 | 3.2 | 12.9 | 0.00 | 0.13 | 0.13 | 94 | 1009.3 |
| 20260507004620 | 14 | 180 | 8.0 | 17.7 | 0.03 | 0.13 | 0.13 | 93 | 1009.5 |
| 20260507002621 | 14 | 180 | 4.8 | 20.9 | 0.05 | 0.13 | 0.13 | 93 | 1009.2 |
| 20260507001620 | 14 | 180 | 8.0 | 17.7 | 0.05 | 0.13 | 0.13 | 92 | 1009.1 |
| 20260507000619 | 14 | 180 | 8.0 | 17.7 | 0.05 | 0.13 | 0.13 | 93 | 1008.9 |
| 20260506235620 | 14 | 180 | 4.8 | 17.7 | 0.05 | 0.13 | 0.13 | 93 | 1009.0 |
| 20260506234620 | 14 | 180 | 8.0 | 12.9 | 0.03 | 0.10 | 0.10 | 93 | 1009.2 |
| 20260506233621 | 14 | 180 | 3.2 | 11.3 | 0.03 | 0.10 | 0.10 | 92 | 1008.9 |
| 20260506232621 | 14 | 180 | 0.0 | 9.7 | 0.03 | 0.08 | 0.08 | 92 | 1008.8 |
| 20260506230719 | 15 | 180 | 1.6 | 8.0 | 0.03 | 0.08 | 0.08 | 92 | 1009.0 |
| 20260506225721 | 15 | 180 | 3.2 | 12.9 | 0.03 | 0.08 | 0.08 | 92 | 1008.9 |
| 20260506223818 | 15 | 252 | 1.6 | 14.5 | 0.05 | 0.08 | 0.08 | 91 | 1009.2 |
| 20260506222821 | 15 | 239 | 8.0 | 20.9 | 0.03 | 0.05 | 0.05 | 91 | 1009.5 |
| 20260506221918 | 15 | 277 | 12.9 | 22.5 | 0.03 | 0.05 | 0.05 | 90 | 1009.3 |
| 20260506220922 | 15 | 248 | 3.2 | 14.5 | 0.03 | 0.05 | 0.05 | 90 | 1009.5 |
| 20260506220019 | 15 | 262 | 8.0 | 17.7 | 0.03 | 0.05 | 0.05 | 89 | 1009.6 |
| 20260506215021 | 15 | 254 | 0.0 | 4.8 | 0.03 | 0.05 | 0.05 | 88 | 1009.7 |
| 20260506214020 | 16 | 249 | 8.0 | 16.1 | 0.03 | 0.05 | 0.03 | 87 | 1009.8 |
| 20260506213019 | 16 | 238 | 11.3 | 19.3 | 0.00 | 0.03 | 0.03 | 85 | 1009.8 |
| 20260506210120 | 16 | 242 | 6.4 | 17.7 | 0.00 | 0.03 | 0.03 | 83 | 1010.0 |
| 20260506205219 | 16 | 234 | 8.0 | 20.9 | 0.00 | 0.03 | 0.03 | 82 | 1009.8 |
| 20260506204220 | 16 | 239 | 0.0 | 11.3 | 0.03 | 0.03 | 0.03 | 79 | 1010.1 |
| 20260506203319 | 17 | 227 | 4.8 | 12.9 | 0.03 | 0.03 | 0.03 | 78 | 1010.1 |
| 20260506202320 | 17 | 244 | 11.3 | 19.3 | 0.03 | 0.03 | 0.03 | 77 | 1010.0 |
| 20260506200319 | 17 | 260 | 9.7 | 17.7 | 0.03 | 0.03 | 0.03 | 76 | 1009.8 |
| 20260506195320 | 17 | 242 | 11.3 | 19.3 | 0.03 | 0.03 | 0.03 | 73 | 1009.9 |
| 20260506194320 | 17 | 242 | 4.8 | 16.1 | 0.00 | 0.00 | 0.00 | 72 | 1010.3 |
| 20260506193336 | 18 | 241 | 8.0 | 22.5 | 0.00 | 0.00 | 0.00 | 70 | 1010.3 |
| 20260506192320 | 18 | 258 | 11.3 | 22.5 | 0.00 | 0.00 | 0.00 | 67 | 1010.2 |
| 20260506191321 | 19 | 243 | 8.0 | 27.4 | 0.00 | 0.00 | 0.00 | 64 | 1009.9 |
| 20260506190319 | 19 | 232 | 3.2 | 12.9 | 0.00 | 0.00 | 0.00 | 63 | 1009.9 |
| 20260506185418 | 20 | 231 | 3.2 | 8.0 | 0.00 | 0.00 | 0.00 | 63 | 1010.0 |
| 20260506184421 | 20 | 240 | 4.8 | 16.1 | 0.00 | 0.00 | 0.00 | 61 | 1009.9 |
| 20260506183518 | 20 | 240 | 11.3 | 19.3 | 0.00 | 0.00 | 0.00 | 59 | 1010.2 |
| 20260506182519 | 20 | 243 | 11.3 | 22.5 | 0.00 | 0.00 | 0.00 | 59 | 1010.2 |
| 20260506181619 | 20 | 247 | 11.3 | 20.9 | 0.00 | 0.00 | 0.00 | 59 | 1010.2 |
| 20260506181519 | 20 | 250 | 8.0 | 19.3 | 0.00 | 0.00 | 0.00 | 60 | 1010.1 |
| 20260506174618 | 20 | 224 | 4.8 | 20.9 | 0.00 | 0.00 | 0.00 | 61 | 1010.6 |
| 20260506173620 | 20 | 244 | 6.4 | 30.6 | 0.00 | 0.00 | 0.00 | 60 | 1010.7 |
| 20260506172618 | 20 | 229 | 6.4 | 16.1 | 0.00 | 0.00 | 0.00 | 61 | 1010.8 |
| 20260506170619 | 20 | 232 | 6.4 | 22.5 | 0.00 | 0.00 | 0.00 | 60 | 1010.9 |
| 20260506165718 | 20 | 220 | 1.6 | 12.9 | 0.00 | 0.00 | 0.00 | 59 | 1011.2 |
| 20260506164720 | 20 | 241 | 3.2 | 12.9 | 0.00 | 0.00 | 0.00 | 60 | 1011.0 |
| 20260506163818 | 20 | 228 | 8.0 | 19.3 | 0.00 | 0.00 | 0.00 | 60 | 1010.9 |
| 20260506162821 | 20 | 236 | 9.7 | 19.3 | 0.00 | 0.00 | 0.00 | 60 | 1011.1 |
| 20260506161820 | 20 | 242 | 3.2 | 17.7 | 0.00 | 0.00 | 0.00 | 60 | 1011.5 |
| 20260506155919 | 20 | 253 | 8.0 | 19.3 | 0.00 | 0.00 | 0.00 | 59 | 1011.8 |
| 20260506153918 | 21 | 237 | 3.2 | 17.7 | 0.00 | 0.00 | 0.00 | 58 | 1011.9 |
| 20260506152919 | 21 | 251 | 1.6 | 11.3 | 0.00 | 0.00 | 0.00 | 59 | 1012.0 |
| 20260506151920 | 21 | 246 | 6.4 | 16.1 | 0.00 | 0.00 | 0.00 | 59 | 1012.1 |
| 20260506150921 | 20 | 236 | 1.6 | 12.9 | 0.00 | 0.00 | 0.00 | 60 | 1012.4 |
| 20260506150018 | 20 | 236 | 3.2 | 11.3 | 0.00 | 0.00 | 0.00 | 60 | 1012.4 |
| 20260506145021 | 20 | 241 | 6.4 | 16.1 | 0.00 | 0.00 | 0.00 | 60 | 1012.1 |
| 20260506144119 | 20 | 253 | 1.6 | 9.7 | 0.00 | 0.00 | 0.00 | 62 | 1012.3 |
| 20260506144019 | 20 | 240 | 0.0 | 6.4 | 0.00 | 0.00 | 0.00 | 61 | 1012.3 |
| 20260506143019 | 20 | 243 | 0.0 | 3.2 | 0.00 | 0.00 | 0.00 | 63 | 1012.1 |
| 20260506142920 | 20 | 263 | 3.2 | 17.7 | 0.00 | 0.00 | 0.00 | 62 | 1012.1 |
| 20260506142019 | 20 | 230 | 1.6 | 12.9 | 0.00 | 0.00 | 0.00 | 64 | 1012.1 |
| 20260506141020 | 19 | 225 | 0.0 | 14.5 | 0.00 | 0.00 | 0.00 | 66 | 1012.4 |
| 20260506135020 | 18 | 250 | 1.6 | 16.1 | 0.00 | 0.00 | 0.00 | 69 | 1012.4 |
| 20260506134019 | 18 | 252 | 6.4 | 14.5 | 0.00 | 0.00 | 0.00 | 71 | 1012.9 |
| 20260506133118 | 17 | 235 | 1.6 | 12.9 | 0.00 | 0.00 | 0.00 | 72 | 1013.0 |
| 20260506133019 | 17 | 254 | 1.6 | 12.9 | 0.00 | 0.00 | 0.00 | 72 | 1012.9 |
| 20260506132020 | 17 | 248 | 1.6 | 17.7 | 0.00 | 0.00 | 0.00 | 73 | 1012.9 |
| 20260506131117 | 17 | 241 | 8.0 | 17.7 | 0.00 | 0.00 | 0.00 | 73 | 1012.8 |
| 20260506130120 | 17 | 257 | 3.2 | 12.9 | 0.00 | 0.00 | 0.00 | 75 | 1012.9 |
| 20260506125118 | 17 | 225 | 3.2 | 14.5 | 0.00 | 0.00 | 0.00 | 76 | 1012.9 |
| 20260506124119 | 16 | 222 | 1.6 | 14.5 | 0.00 | 0.00 | 0.00 | 77 | 1013.3 |
| 20260506123119 | 16 | 260 | 4.8 | 14.5 | 0.00 | 0.00 | 0.00 | 78 | 1013.1 |
| 20260506121219 | 16 | 241 | 1.6 | 11.3 | 0.00 | 0.00 | 0.00 | 80 | 1013.0 |
| 20260506120220 | 15 | 250 | 0.0 | 6.4 | 0.00 | 0.00 | 0.00 | 80 | 1013.5 |
| 20260506114319 | 15 | 239 | 3.2 | 17.7 | 0.00 | 0.00 | 0.00 | 80 | 1013.7 |
| 20260506113319 | 15 | 243 | 4.8 | 17.7 | 0.00 | 0.00 | 0.00 | 80 | 1013.6 |
| 20260506112321 | 15 | 231 | 8.0 | 16.1 | 0.00 | 0.00 | 0.00 | 80 | 1013.5 |
| 20260506111320 | 15 | 246 | 3.2 | 16.1 | 0.00 | 0.00 | 0.00 | 81 | 1013.4 |
| 20260506110321 | 15 | 219 | 0.0 | 11.3 | 0.00 | 0.00 | 0.00 | 81 | 1013.4 |
| 20260506105320 | 15 | 240 | 3.2 | 16.1 | 0.00 | 0.00 | 0.00 | 80 | 1013.3 |
| 20260506103319 | 15 | 230 | 3.2 | 12.9 | 0.00 | 0.00 | 0.00 | 80 | 1013.6 |
| 20260506102320 | 15 | 242 | 6.4 | 14.5 | 0.00 | 0.00 | 0.00 | 80 | 1013.5 |
| 20260506101419 | 15 | 246 | 1.6 | 12.9 | 0.00 | 0.00 | 0.00 | 80 | 1013.5 |
| 20260506094518 | 15 | 248 | 0.0 | 12.9 | 0.00 | 0.00 | 0.00 | 80 | 1013.2 |
| 20260506093518 | 15 | 247 | 4.8 | 14.5 | 0.00 | 0.00 | 0.00 | 79 | 1013.3 |
| 20260506092518 | 15 | 252 | 3.2 | 17.7 | 0.00 | 0.00 | 0.00 | 78 | 1013.1 |
| 20260506091519 | 15 | 225 | 4.8 | 22.5 | 0.00 | 0.00 | 0.00 | 78 | 1013.1 |
| 20260506091419 | 15 | 226 | 1.6 | 14.5 | 0.00 | 0.00 | 0.00 | 78 | 1013.1 |
| 20260506090419 | 15 | 249 | 3.2 | 14.5 | 0.00 | 0.00 | 0.00 | 78 | 1013.3 |
| 20260506085420 | 15 | 249 | 3.2 | 14.5 | 0.00 | 0.00 | 0.00 | 78 | 1013.4 |
| 20260506084418 | 15 | 250 | 6.4 | 17.7 | 0.00 | 0.00 | 0.00 | 77 | 1013.3 |
| 20260506083419 | 15 | 250 | 9.7 | 19.3 | 0.00 | 0.00 | 0.00 | 76 | 1013.4 |
| 20260506082517 | 15 | 235 | 4.8 | 17.7 | 0.00 | 0.00 | 0.00 | 77 | 1013.2 |
| 20260506080518 | 15 | 228 | 8.0 | 19.3 | 0.00 | 0.00 | 0.00 | 76 | 1013.2 |